Time;durP1;ratioP1;P1;durP2;ratioP2;P2;SDS_P1;SDS_P2;PMS_P1;PMS_P2;Temp;Humidity;BMP_temperature;BMP_pressure;BME280_temperature;BME280_humidity;BME280_pressure;Samples;Min_cycle;Max_cycle;Signal;HPM_P1;HPM_P2
2023/06/30 00:00:12;;;;;;;3.67;3.10;;;;;;;-143.84;52.58;45050.97;4894596;29;20548;-55
2023/06/30 00:02:40;;;;;;;6.27;3.10;;;;;;;-143.84;53.02;45035.75;4894003;29;20582;-55
2023/06/30 00:05:07;;;;;;;4.90;3.67;;;;;;;-143.84;52.99;45050.97;4894014;29;20445;-55
2023/06/30 00:07:34;;;;;;;3.07;2.77;;;;;;;-143.84;53.31;45066.22;4894356;29;20450;-55
2023/06/30 00:10:04;;;;;;;4.10;3.70;;;;;;;-143.84;53.51;45064.31;4893590;29;20999;-55
2023/06/30 00:12:31;;;;;;;4.50;3.40;;;;;;;-143.84;53.50;45056.69;4894353;29;20455;-55
2023/06/30 00:14:58;;;;;;;4.63;3.10;;;;;;;-143.84;53.66;45064.31;4894374;29;20507;-55
2023/06/30 00:17:25;;;;;;;8.10;3.10;;;;;;;-143.84;53.76;45060.50;4894402;29;20534;-55
2023/06/30 00:19:52;;;;;;;5.87;3.27;;;;;;;-143.84;53.80;45064.31;4894442;29;20480;-55
2023/06/30 00:22:21;;;;;;;3.20;3.00;;;;;;;-143.84;54.25;45054.78;4894038;29;20509;-55
2023/06/30 00:24:50;;;;;;;3.60;3.10;;;;;;;-143.84;54.24;45056.69;4893580;29;20442;-55
2023/06/30 00:27:21;;;;;;;3.33;3.13;;;;;;;-143.84;54.54;45037.66;4892568;29;20452;-55
2023/06/30 00:29:48;;;;;;;3.10;2.90;;;;;;;-143.84;54.17;45045.25;4893452;29;20453;-54
2023/06/30 00:32:15;;;;;;;4.40;3.10;;;;;;;-143.84;54.31;45079.53;4893509;29;21117;-54
2023/06/30 00:34:42;;;;;;;5.20;3.20;;;;;;;-143.84;54.26;45064.31;4892554;29;20547;-54
2023/06/30 00:37:09;;;;;;;2.80;2.60;;;;;;;-143.84;54.24;45049.06;4893245;29;20446;-54
2023/06/30 00:39:36;;;;;;;3.70;3.23;;;;;;;-143.84;54.41;45037.66;4893648;29;20919;-55
2023/06/30 00:42:04;;;;;;;5.57;2.97;;;;;;;-143.84;54.72;45073.81;4893838;29;20887;-55
2023/06/30 00:44:33;;;;;;;6.23;3.40;;;;;;;-143.84;54.69;45085.25;4893884;29;20495;-55
2023/06/30 00:47:00;;;;;;;3.47;3.17;;;;;;;-143.84;54.65;45049.06;4893786;29;21192;-55
2023/06/30 00:49:28;;;;;;;3.30;3.10;;;;;;;-143.84;54.54;45068.13;4893891;29;20521;-55
2023/06/30 00:51:55;;;;;;;3.10;2.90;;;;;;;-143.84;54.64;45070.00;4893717;29;20437;-55
2023/06/30 00:54:22;;;;;;;3.70;3.27;;;;;;;-143.84;54.80;45068.13;4893760;29;20875;-55
2023/06/30 00:56:49;;;;;;;5.30;3.10;;;;;;;-143.84;54.61;45054.78;4893699;29;20500;-55
2023/06/30 00:59:17;;;;;;;7.50;3.50;;;;;;;-143.84;55.30;45056.69;4893909;29;20520;-55
2023/06/30 01:01:54;;;;;;;3.33;3.10;;;;;;;-143.84;55.06;45045.25;4894119;29;20461;-53
2023/06/30 01:04:29;;;;;;;2.80;2.60;;;;;;;-143.84;54.64;45056.69;4892862;29;20497;-55
2023/06/30 01:07:02;;;;;;;4.40;2.83;;;;;;;-143.84;55.61;45070.00;4893586;29;20955;-53
2023/06/30 01:09:34;;;;;;;7.63;3.13;;;;;;;-143.84;54.84;45033.84;4893955;29;20516;-53
2023/06/30 01:12:01;;;;;;;3.93;3.10;;;;;;;-143.84;55.48;45064.31;4893957;29;20488;-53
2023/06/30 01:14:30;;;;;;;5.17;3.47;;;;;;;-143.84;55.77;45066.22;4893803;29;20460;-53
2023/06/30 01:17:01;;;;;;;3.73;3.40;;;;;;;-143.84;55.83;45052.88;4893906;29;20450;-54
2023/06/30 01:19:36;;;;;;;8.93;3.67;;;;;;;-143.84;55.65;45050.97;4893643;29;20464;-53
2023/06/30 01:22:09;;;;;;;8.20;3.43;;;;;;;-143.84;55.65;45081.44;4897008;29;20520;-53
2023/06/30 01:24:38;;;;;;;3.00;2.80;;;;;;;-143.84;55.56;45066.22;4897399;29;20548;-53
2023/06/30 01:27:06;;;;;;;3.43;2.70;;;;;;;-143.84;55.37;45064.31;4897483;29;20445;-53
2023/06/30 01:29:33;;;;;;;3.37;3.17;;;;;;;-143.84;55.37;45073.81;4897544;29;20515;-53
2023/06/30 01:32:02;;;;;;;3.60;2.70;;;;;;;-143.84;55.32;45026.22;4897382;29;20951;-53
2023/06/30 01:34:29;;;;;;;3.00;2.80;;;;;;;-143.84;55.42;45081.44;4896824;29;20449;-53
2023/06/30 01:36:56;;;;;;;4.30;2.80;;;;;;;-143.84;55.54;45058.59;4896862;29;20512;-54
2023/06/30 01:39:23;;;;;;;4.10;3.30;;;;;;;-143.84;55.55;45068.13;4896845;29;20821;-53
2023/06/30 01:41:50;;;;;;;4.03;3.07;;;;;;;-143.84;55.86;45075.72;4897287;29;21010;-53
2023/06/30 01:44:19;;;;;;;4.40;3.10;;;;;;;-143.84;55.86;45081.44;4897292;29;20578;-53
2023/06/30 01:46:46;;;;;;;3.07;2.87;;;;;;;-143.84;56.05;45050.97;4897211;29;20449;-53
2023/06/30 01:49:16;;;;;;;7.07;3.20;;;;;;;-143.84;56.21;45062.41;4897329;29;20528;-53
2023/06/30 01:51:43;;;;;;;4.27;3.43;;;;;;;-143.84;56.31;45064.31;4897212;29;20488;-53
2023/06/30 01:54:10;;;;;;;7.30;2.73;;;;;;;-143.84;56.21;45056.69;4897174;29;20507;-53
2023/06/30 01:56:37;;;;;;;3.27;2.93;;;;;;;-143.84;55.94;45056.69;4896821;29;20925;-53
2023/06/30 01:59:04;;;;;;;3.50;3.17;;;;;;;-143.84;56.42;45045.25;4896963;29;20457;-53
2023/06/30 02:01:32;;;;;;;3.17;2.87;;;;;;;-143.84;56.65;45077.63;4896789;29;20445;-53
2023/06/30 02:03:59;;;;;;;2.67;2.47;;;;;;;-143.84;56.73;45077.63;4896767;29;20491;-55
2023/06/30 02:06:27;;;;;;;3.50;2.53;;;;;;;-143.84;56.63;45056.69;4896187;29;20447;-55
2023/06/30 02:08:54;;;;;;;4.53;4.13;;;;;;;-143.84;56.57;45062.41;4896037;29;20518;-55
2023/06/30 02:11:22;;;;;;;3.43;3.17;;;;;;;-143.84;56.93;45070.00;4896555;29;20447;-55
2023/06/30 02:13:49;;;;;;;3.23;2.80;;;;;;;-143.84;56.96;45054.78;4896402;29;20505;-55
2023/06/30 02:16:16;;;;;;;2.93;2.73;;;;;;;-143.84;56.73;45056.69;4896577;29;21181;-55
2023/06/30 02:18:43;;;;;;;8.20;2.67;;;;;;;-143.84;56.49;45066.22;4896716;29;20443;-55
2023/06/30 02:21:10;;;;;;;4.33;2.60;;;;;;;-143.84;56.17;45083.34;4896516;29;20447;-55
2023/06/30 02:23:39;;;;;;;2.97;2.73;;;;;;;-143.84;56.40;45050.97;4896526;29;20897;-53
2023/06/30 02:26:06;;;;;;;2.73;2.40;;;;;;;-143.84;56.40;45098.56;4897195;29;20449;-53
2023/06/30 02:28:33;;;;;;;4.23;2.50;;;;;;;-143.84;56.22;45054.78;4896548;29;20598;-53
2023/06/30 02:31:00;;;;;;;3.10;2.90;;;;;;;-143.84;56.34;45070.00;4896652;29;21425;-53
2023/06/30 02:33:27;;;;;;;3.73;2.80;;;;;;;-143.84;56.51;45071.91;4895856;29;20450;-53
2023/06/30 02:35:54;;;;;;;3.10;2.60;;;;;;;-143.84;56.65;45073.81;4895860;29;21322;-54
2023/06/30 02:38:21;;;;;;;2.50;2.30;;;;;;;-143.84;56.77;45056.69;4896269;29;20927;-54
2023/06/30 02:40:50;;;;;;;5.17;3.33;;;;;;;-143.84;56.90;45071.91;4896488;29;20532;-54
2023/06/30 02:43:17;;;;;;;2.97;2.77;;;;;;;-143.84;57.12;45077.63;4896483;29;20502;-54
2023/06/30 02:45:44;;;;;;;2.77;2.60;;;;;;;-143.84;57.17;45047.16;4896141;29;20452;-54
2023/06/30 02:48:11;;;;;;;3.13;2.60;;;;;;;-143.84;57.78;45066.22;4896456;29;20946;-54
2023/06/30 02:50:38;;;;;;;5.00;3.20;;;;;;;-143.84;57.82;45079.53;4896355;29;20954;-54
2023/06/30 02:53:06;;;;;;;3.07;2.80;;;;;;;-143.84;57.75;45102.38;4896808;29;20877;-54
2023/06/30 02:55:33;;;;;;;4.20;2.63;;;;;;;-143.84;57.71;45090.97;4895886;29;20451;-54
2023/06/30 02:58:02;;;;;;;3.20;2.90;;;;;;;-143.84;58.10;45071.91;4896080;29;20444;-54
2023/06/30 03:00:29;;;;;;;4.97;2.60;;;;;;;-143.84;58.70;45071.91;4895261;29;20446;-54
2023/06/30 03:02:56;;;;;;;2.80;2.60;;;;;;;-143.84;58.99;45094.78;4894992;29;20453;-54
2023/06/30 03:05:23;;;;;;;5.63;3.20;;;;;;;-143.84;59.07;45071.91;4894949;29;20521;-54
2023/06/30 03:07:50;;;;;;;2.63;2.40;;;;;;;-143.84;58.96;45052.88;4895111;29;20506;-54
2023/06/30 03:10:18;;;;;;;3.00;2.60;;;;;;;-143.84;58.84;45075.72;4895838;29;20498;-53
2023/06/30 03:12:45;;;;;;;2.70;2.50;;;;;;;-143.84;58.41;45058.59;4895276;29;20458;-53
2023/06/30 03:15:13;;;;;;;2.70;2.50;;;;;;;-143.84;57.56;45071.91;4895230;29;20458;-53
2023/06/30 03:17:40;;;;;;;5.07;2.50;;;;;;;-143.84;56.63;45056.69;4895422;29;20459;-53
2023/06/30 03:20:11;;;;;;;2.73;2.53;;;;;;;-143.84;56.47;45075.72;4895568;29;20953;-54
2023/06/30 03:22:39;;;;;;;3.93;2.87;;;;;;;-143.84;55.97;45075.72;4895297;29;20451;-54
2023/06/30 03:25:08;;;;;;;4.20;2.43;;;;;;;-143.84;56.11;45079.53;4895532;29;21247;-54
2023/06/30 03:27:36;;;;;;;3.83;3.00;;;;;;;-143.84;56.69;45054.78;4895599;29;21004;-55
2023/06/30 03:30:04;;;;;;;5.93;2.67;;;;;;;-143.84;56.71;45094.78;4895676;29;20451;-54
2023/06/30 03:32:33;;;;;;;7.80;2.53;;;;;;;-143.84;56.58;45064.31;4895869;29;20458;-53
2023/06/30 03:35:02;;;;;;;9.87;2.60;;;;;;;-143.84;56.35;45066.22;4895477;29;20820;-54
2023/06/30 03:37:30;;;;;;;4.50;2.80;;;;;;;-143.84;53.65;45035.75;4894518;29;20895;-54
2023/06/30 03:39:57;;;;;;;9.27;2.67;;;;;;;-143.84;49.31;45020.50;4894843;29;20516;-55
2023/06/30 03:42:24;;;;;;;3.00;2.37;;;;;;;-143.84;46.15;45020.50;4895354;29;20531;-55
2023/06/30 03:44:51;;;;;;;3.10;2.70;;;;;;;-143.84;43.79;45030.03;4895335;29;21522;-55
2023/06/30 03:47:18;;;;;;;7.63;3.30;;;;;;;-143.84;43.21;45005.28;4895196;29;20438;-55
2023/06/30 03:49:47;;;;;;;2.50;2.30;;;;;;;-143.84;41.77;45016.69;4895511;29;20453;-55
2023/06/30 03:52:14;;;;;;;2.40;2.20;;;;;;;-143.84;41.31;45001.47;4895775;29;20470;-55
2023/06/30 03:54:41;;;;;;;2.30;2.10;;;;;;;-143.84;40.51;45003.38;4895079;29;20459;-54
2023/06/30 03:57:08;;;;;;;4.83;2.53;;;;;;;-143.84;40.06;45016.69;4894748;29;21025;-53
2023/06/30 03:59:35;;;;;;;4.13;2.60;;;;;;;-143.84;39.72;44997.66;4897812;29;20452;-54
2023/06/30 04:02:02;;;;;;;4.53;2.07;;;;;;;-143.84;39.80;44974.81;4903874;29;20443;-54
2023/06/30 04:04:30;;;;;;;4.53;1.87;;;;;;;-143.84;39.29;44999.56;4903061;29;20493;-54
2023/06/30 04:06:58;;;;;;;2.70;2.30;;;;;;;-143.84;38.64;44976.72;4904652;29;20492;-54
2023/06/30 04:09:25;;;;;;;1.60;1.50;;;;;;;-143.84;38.79;44963.38;4902577;29;20862;-54
2023/06/30 04:11:52;;;;;;;8.23;1.90;;;;;;;-143.84;38.41;45007.19;4905180;29;20445;-56
2023/06/30 04:14:21;;;;;;;2.50;1.73;;;;;;;-143.84;38.12;44978.63;4902340;29;20510;-56
2023/06/30 04:16:48;;;;;;;2.13;1.93;;;;;;;-143.84;38.34;44955.75;4903430;29;21009;-56
2023/06/30 04:19:15;;;;;;;5.23;2.33;;;;;;;-143.84;38.48;45003.38;4904517;29;20532;-56
2023/06/30 04:21:42;;;;;;;1.80;1.70;;;;;;;-143.84;37.55;44986.22;4903008;29;21147;-56
2023/06/30 04:24:10;;;;;;;1.97;1.70;;;;;;;-143.84;37.67;44974.81;4902368;29;20922;-56
2023/06/30 04:26:37;;;;;;;4.60;1.70;;;;;;;-143.84;37.67;44972.91;4904268;29;20456;-56
2023/06/30 04:29:05;;;;;;;5.53;1.70;;;;;;;-143.84;37.53;44965.28;4902050;29;20507;-56
2023/06/30 04:31:32;;;;;;;13.57;2.40;;;;;;;-143.84;37.24;44980.53;4902350;29;20445;-55
2023/06/30 04:33:59;;;;;;;2.50;1.83;;;;;;;-143.84;37.43;44972.91;4903699;29;20479;-55
2023/06/30 04:36:29;;;;;;;2.13;1.67;;;;;;;-143.84;37.25;44965.28;4905071;29;21278;-55
2023/06/30 04:38:57;;;;;;;1.70;1.50;;;;;;;-143.84;36.85;44959.56;4902793;29;20530;-55
2023/06/30 04:41:25;;;;;;;3.10;1.83;;;;;;;-143.84;36.71;44990.03;4902283;29;20471;-55
2023/06/30 04:43:52;;;;;;;2.00;1.90;;;;;;;-143.84;36.84;44963.38;4912122;29;20902;-55
2023/06/30 04:46:19;;;;;;;2.77;1.73;;;;;;;-143.84;36.37;44938.63;4913021;29;20444;-55
2023/06/30 04:48:48;;;;;;;6.80;1.90;;;;;;;-143.84;36.38;44967.19;4912960;29;20507;-55
2023/06/30 04:51:15;;;;;;;16.23;2.07;;;;;;;-143.84;36.59;44969.09;4913294;29;20962;-54
2023/06/30 04:53:42;;;;;;;2.20;2.00;;;;;;;-143.84;36.43;44971.00;4913641;29;20440;-54
2023/06/30 04:56:09;;;;;;;3.63;1.50;;;;;;;-143.84;36.07;44944.34;4912487;29;20555;-54
2023/06/30 04:58:38;;;;;;;2.20;2.00;;;;;;;-143.84;36.02;44957.66;4913507;29;20448;-53
2023/06/30 05:01:05;;;;;;;2.33;1.73;;;;;;;-143.84;35.56;44944.34;4912844;29;20452;-53
2023/06/30 05:03:32;;;;;;;1.60;1.50;;;;;;;-143.84;35.85;44934.81;4912662;29;20507;-53
2023/06/30 05:06:00;;;;;;;2.47;1.40;;;;;;;-143.84;35.62;44948.16;4912627;29;20458;-53
2023/06/30 05:08:27;;;;;;;4.43;1.90;;;;;;;-143.84;36.06;44967.19;4912747;29;20542;-53
2023/06/30 05:10:54;;;;;;;7.70;2.23;;;;;;;-143.84;35.63;44965.28;4912648;29;20444;-53
2023/06/30 05:13:21;;;;;;;2.40;1.90;;;;;;;-143.84;35.38;44940.53;4912500;29;20514;-53
2023/06/30 05:15:49;;;;;;;2.90;1.43;;;;;;;-143.84;35.12;44915.78;4912675;29;20456;-53
2023/06/30 05:18:16;;;;;;;2.90;2.70;;;;;;;-143.84;35.32;44921.50;4911987;29;20459;-56
2023/06/30 05:20:44;;;;;;;5.57;3.00;;;;;;;-143.84;35.33;44919.59;4912146;29;20436;-54
2023/06/30 05:23:11;;;;;;;4.90;1.70;;;;;;;-143.84;34.82;44923.41;4911880;29;20970;-53
2023/06/30 05:25:38;;;;;;;1.83;1.73;;;;;;;-143.84;35.16;44917.69;4912599;29;20570;-53
2023/06/30 05:28:05;;;;;;;2.17;2.03;;;;;;;-143.84;35.55;44917.69;4912297;29;20458;-53
2023/06/30 05:30:32;;;;;;;1.83;1.73;;;;;;;-143.84;35.50;44896.75;4912048;29;20510;-53
2023/06/30 05:33:01;;;;;;;2.93;2.23;;;;;;;-143.84;34.79;44904.34;4912400;29;20515;-54
2023/06/30 05:35:28;;;;;;;2.60;1.70;;;;;;;-143.84;33.67;44940.53;4912449;29;20456;-54
2023/06/30 05:37:56;;;;;;;1.60;1.50;;;;;;;-143.84;33.97;44932.91;4912374;29;21324;-54
2023/06/30 05:40:23;;;;;;;36.50;15.90;;;;;;;-143.84;34.30;44931.00;4912416;29;20520;-54
2023/06/30 05:42:50;;;;;;;7.00;6.30;;;;;;;-143.84;34.77;44902.44;4912299;29;20492;-54
2023/06/30 05:45:17;;;;;;;36.83;27.13;;;;;;;-143.84;33.58;44923.41;4912736;29;20560;-57
2023/06/30 05:47:44;;;;;;;10.77;1.93;;;;;;;-143.84;34.49;44931.00;4912226;29;20591;-57
2023/06/30 05:50:13;;;;;;;5.30;1.73;;;;;;;-143.84;33.91;44911.97;4912114;29;20464;-57
2023/06/30 05:52:40;;;;;;;9.07;2.17;;;;;;;-143.84;34.08;44906.25;4912313;29;20447;-57
2023/06/30 05:55:08;;;;;;;3.23;1.80;;;;;;;-143.84;34.11;44915.78;4911568;29;20458;-57
2023/06/30 05:57:35;;;;;;;6.67;2.70;;;;;;;-143.84;35.29;44923.41;4911150;29;21025;-57
2023/06/30 06:00:03;;;;;;;8.30;3.37;;;;;;;-143.84;36.06;44896.75;4912113;29;20844;-55
2023/06/30 06:02:30;;;;;;;7.43;3.07;;;;;;;-143.84;35.27;44898.66;4911596;29;20888;-54
2023/06/30 06:04:57;;;;;;;7.60;3.07;;;;;;;-143.84;35.64;44917.69;4911937;29;20488;-55
2023/06/30 06:07:25;;;;;;;5.07;2.70;;;;;;;-143.84;35.38;44915.78;4912557;29;20449;-55
2023/06/30 06:09:52;;;;;;;21.23;3.33;;;;;;;-143.84;34.87;44927.19;4915618;29;20453;-55
2023/06/30 06:12:20;;;;;;;6.87;2.93;;;;;;;-143.84;35.81;44910.06;4915605;29;20450;-55
2023/06/30 06:14:47;;;;;;;3.87;2.10;;;;;;;-143.84;35.43;44913.88;4915325;29;20444;-54
2023/06/30 06:17:14;;;;;;;6.40;2.47;;;;;;;-143.84;35.37;44915.78;4915276;29;20512;-55
2023/06/30 06:19:41;;;;;;;9.40;2.33;;;;;;;-143.84;35.46;44931.00;4915265;29;20448;-55
2023/06/30 06:22:08;;;;;;;4.23;2.20;;;;;;;-143.84;35.67;44913.88;4915210;29;21042;-54
2023/06/30 06:24:36;;;;;;;13.93;3.53;;;;;;;-143.84;36.15;44915.78;4915302;29;20483;-55
2023/06/30 06:27:04;;;;;;;7.67;3.23;;;;;;;-143.84;35.73;44904.34;4915099;29;20459;-54
2023/06/30 06:29:31;;;;;;;15.57;3.80;;;;;;;-143.84;36.46;44917.69;4915016;29;20852;-54
2023/06/30 06:31:58;;;;;;;3.70;2.97;;;;;;;-143.84;35.42;44908.16;4914886;29;20548;-54
2023/06/30 06:34:25;;;;;;;6.70;2.80;;;;;;;-143.84;36.58;44904.34;4915439;29;20440;-57
2023/06/30 06:36:52;;;;;;;11.77;2.97;;;;;;;-143.84;36.84;44919.59;4914647;29;20459;-57
2023/06/30 06:39:20;;;;;;;5.17;3.40;;;;;;;-143.84;36.38;44942.44;4914104;29;20484;-56
2023/06/30 06:41:49;;;;;;;5.03;3.10;;;;;;;-143.84;36.86;44927.19;4914246;29;20460;-57
2023/06/30 06:44:16;;;;;;;3.50;2.63;;;;;;;-143.84;36.60;44908.16;4914453;29;20452;-57
2023/06/30 06:46:43;;;;;;;2.57;2.37;;;;;;;-143.84;35.45;44927.19;4914728;29;20448;-57
2023/06/30 06:49:10;;;;;;;2.30;2.10;;;;;;;-143.84;34.88;44894.84;4914153;29;20543;-56
2023/06/30 06:51:38;;;;;;;4.13;2.00;;;;;;;-143.84;34.34;44929.09;4914343;29;20441;-57
2023/06/30 06:54:05;;;;;;;7.43;2.67;;;;;;;-143.84;34.99;44889.13;4913874;29;20445;-57
2023/06/30 06:56:32;;;;;;;3.93;2.37;;;;;;;-143.84;35.13;44896.75;4913969;29;20511;-57
2023/06/30 06:59:00;;;;;;;2.77;2.17;;;;;;;-143.84;34.47;44908.16;4914522;29;20441;-57
2023/06/30 07:01:27;;;;;;;4.50;2.53;;;;;;;-143.84;35.73;44904.34;4914872;29;20452;-55
2023/06/30 07:03:55;;;;;;;2.23;2.03;;;;;;;-143.84;34.65;44910.06;4896160;29;20907;-56
2023/06/30 07:06:22;;;;;;;9.23;2.10;;;;;;;-143.84;34.20;44889.13;4895658;29;20544;-56
2023/06/30 07:08:49;;;;;;;11.37;10.37;;;;;;;-143.84;36.15;44889.13;4895416;29;20453;-59
2023/06/30 07:11:16;;;;;;;8.87;7.00;;;;;;;-143.84;34.56;44898.66;4895480;29;20446;-59
2023/06/30 07:13:44;;;;;;;6.13;3.27;;;;;;;-143.84;37.77;44894.84;4895304;29;20446;-57
2023/06/30 07:16:17;;;;;;;2.70;2.50;;;;;;;-143.84;36.67;44891.03;4895750;29;20486;-57
2023/06/30 07:18:44;;;;;;;3.63;1.70;;;;;;;-143.84;36.77;44852.94;4895004;29;20454;-59
2023/06/30 07:21:11;;;;;;;1.90;1.57;;;;;;;-143.84;35.37;44883.41;4911801;29;20451;-56
2023/06/30 07:23:38;;;;;;;2.40;1.63;;;;;;;-143.84;34.16;44885.31;4914214;29;20619;-55
2023/06/30 07:26:05;;;;;;;2.50;1.83;;;;;;;-143.84;33.86;44864.38;4914439;29;20513;-53
2023/06/30 07:28:32;;;;;;;8.70;3.20;;;;;;;-143.84;35.31;44860.56;4914349;29;20448;-53
2023/06/30 07:31:00;;;;;;;2.00;1.90;;;;;;;-143.84;34.28;44875.78;4913930;29;20858;-53
2023/06/30 07:33:28;;;;;;;2.17;1.60;;;;;;;-143.84;33.58;44854.84;4913111;29;20539;-53
2023/06/30 07:35:55;;;;;;;3.77;1.43;;;;;;;-143.84;31.80;44841.53;4913573;29;20460;-53
2023/06/30 07:38:23;;;;;;;3.53;1.43;;;;;;;-143.84;31.58;44833.91;4913545;29;20516;-53
2023/06/30 07:40:50;;;;;;;7.07;1.73;;;;;;;-143.84;33.57;44858.66;4913358;29;20444;-53
2023/06/30 07:43:17;;;;;;;1.87;1.30;;;;;;;-143.84;32.83;44835.81;4913410;29;20501;-53
2023/06/30 07:45:44;;;;;;;1.50;1.33;;;;;;;-143.84;31.66;44849.13;4913851;29;20547;-53
2023/06/30 07:48:11;;;;;;;1.33;1.23;;;;;;;-143.84;31.69;44858.66;4901047;29;20453;-53
2023/06/30 07:50:39;;;;;;;2.60;1.60;;;;;;;-143.84;31.49;44841.53;4895007;29;20874;-53
2023/06/30 07:53:08;;;;;;;88.97;12.20;;;;;;;-143.84;32.31;44845.31;4895181;29;20517;-53
2023/06/30 07:55:35;;;;;;;97.73;14.77;;;;;;;-143.84;32.06;44833.91;4894549;29;20457;-53
2023/06/30 07:58:02;;;;;;;52.03;6.87;;;;;;;-143.84;31.58;44833.91;4894756;29;20446;-52
2023/06/30 08:00:30;;;;;;;4.13;1.53;;;;;;;-143.84;31.01;44841.53;4894887;29;20834;-52
2023/06/30 08:02:57;;;;;;;2.43;1.87;;;;;;;-143.84;31.69;44818.66;4894905;29;20480;-52
2023/06/30 08:05:24;;;;;;;3.17;1.30;;;;;;;-143.84;31.78;44841.53;4894658;29;20490;-52
2023/06/30 08:07:53;;;;;;;2.17;1.37;;;;;;;-143.84;31.04;44832.00;4894688;29;20450;-52
2023/06/30 08:10:20;;;;;;;1.50;1.30;;;;;;;-143.84;30.98;44841.53;4894561;29;20991;-52
2023/06/30 08:12:47;;;;;;;3.33;1.33;;;;;;;-143.84;31.17;44839.63;4901850;29;20448;-53
2023/06/30 08:15:14;;;;;;;3.20;1.40;;;;;;;-143.84;31.24;44833.91;4913179;29;20970;-53
2023/06/30 08:17:41;;;;;;;4.23;1.50;;;;;;;-143.84;30.92;44822.47;4912551;29;20950;-53
2023/06/30 08:20:10;;;;;;;2.93;1.20;;;;;;;-143.84;30.17;44820.56;4912891;29;20445;-53
2023/06/30 08:22:37;;;;;;;3.87;1.63;;;;;;;-143.84;30.42;44811.06;4913123;29;20445;-52
2023/06/30 08:25:07;;;;;;;1.60;1.40;;;;;;;-143.84;29.89;44826.28;4913004;29;21228;-52
2023/06/30 08:27:34;;;;;;;2.47;2.13;;;;;;;-143.84;30.68;44832.00;4913305;29;20551;-52
2023/06/30 08:30:01;;;;;;;4.30;1.80;;;;;;;-143.84;30.98;44778.69;4901406;29;20458;-52
2023/06/30 08:32:28;;;;;;;4.47;1.17;;;;;;;-143.84;29.15;44812.97;4894230;29;20441;-52
2023/06/30 08:34:55;;;;;;;3.53;1.77;;;;;;;-143.84;29.14;44814.88;4894281;29;20871;-52
2023/06/30 08:37:22;;;;;;;1.40;1.30;;;;;;;-143.84;29.42;44828.19;4894038;29;20509;-52
2023/06/30 08:39:49;;;;;;;2.77;1.50;;;;;;;-143.84;30.50;44828.19;4893964;29;20454;-52
2023/06/30 08:42:23;;;;;;;1.57;1.23;;;;;;;-143.84;29.58;44845.31;4894243;29;20956;-52
2023/06/30 08:44:52;;;;;;;6.13;1.30;;;;;;;-143.84;31.17;44807.25;4894233;29;21315;-52
2023/06/30 08:47:21;;;;;;;1.47;1.20;;;;;;;-143.84;30.63;44809.16;4893778;29;20525;-52
2023/06/30 08:49:49;;;;;;;1.77;1.50;;;;;;;-143.84;30.27;44824.38;4894310;29;20446;-52
2023/06/30 08:52:16;;;;;;;1.90;1.60;;;;;;;-143.84;29.18;44803.44;4894282;29;20540;-52
2023/06/30 08:54:44;;;;;;;2.97;1.00;;;;;;;-143.84;29.90;44824.38;4894148;29;20448;-52
2023/06/30 08:57:15;;;;;;;1.37;1.27;;;;;;;-143.84;30.33;44824.38;4894002;29;20481;-53
2023/06/30 08:59:43;;;;;;;2.13;1.30;;;;;;;-143.84;30.14;44788.22;4894025;29;20517;-57
2023/06/30 09:02:12;;;;;;;90.20;68.90;;;;;;;-143.84;29.61;44816.78;4894030;29;20960;-53
2023/06/30 09:04:41;;;;;;;2.90;1.90;;;;;;;-143.84;29.80;44822.47;4912457;29;20465;-52
2023/06/30 09:07:11;;;;;;;3.83;2.60;;;;;;;-143.84;30.15;44803.44;4913121;29;20552;-52
2023/06/30 09:09:43;;;;;;;2.70;1.43;;;;;;;-143.84;29.61;44830.09;4913103;29;20445;-53
2023/06/30 09:12:11;;;;;;;10.20;1.50;;;;;;;-143.84;30.64;44795.81;4912993;29;20452;-53
2023/06/30 09:14:41;;;;;;;1.40;1.30;;;;;;;-143.84;31.29;44812.97;4912886;29;20445;-53
2023/06/30 09:17:10;;;;;;;3.10;1.33;;;;;;;-143.84;29.75;44782.50;4913232;29;20994;-53
2023/06/30 09:19:37;;;;;;;2.37;1.07;;;;;;;-143.84;30.13;44811.06;4912899;29;20457;-53
2023/06/30 09:22:06;;;;;;;3.53;1.30;;;;;;;-143.84;30.13;44811.06;4913160;29;20444;-53
2023/06/30 09:24:33;;;;;;;3.70;1.20;;;;;;;-143.84;30.50;44776.78;4913032;29;20456;-53
2023/06/30 09:27:00;;;;;;;2.33;1.40;;;;;;;-143.84;29.82;44812.97;4912822;29;20496;-53
2023/06/30 09:29:33;;;;;;;1.97;1.60;;;;;;;-143.84;29.62;44803.44;4912554;29;20513;-53
2023/06/30 09:32:02;;;;;;;3.90;1.53;;;;;;;-143.84;29.81;44788.22;4912885;29;20453;-53
2023/06/30 09:34:30;;;;;;;4.07;1.30;;;;;;;-143.84;29.57;44820.56;4912901;29;20476;-53
2023/06/30 09:36:58;;;;;;;4.17;2.37;;;;;;;-143.84;31.52;44824.38;4913122;29;20452;-53
2023/06/30 09:39:25;;;;;;;3.50;2.20;;;;;;;-143.84;32.65;44782.50;4913078;29;20520;-53
2023/06/30 09:41:52;;;;;;;7.13;2.33;;;;;;;-143.84;33.88;44826.28;4914281;29;20448;-53
2023/06/30 09:44:20;;;;;;;1.83;1.73;;;;;;;-143.84;33.44;44811.06;4916773;29;21060;-53
2023/06/30 09:46:47;;;;;;;4.23;2.20;;;;;;;-143.84;34.39;44824.38;4916432;29;20488;-53
2023/06/30 09:49:25;;;;;;;2.50;2.30;;;;;;;-143.84;33.13;44807.25;4916701;29;20441;-53
2023/06/30 09:51:56;;;;;;;3.30;1.70;;;;;;;-143.84;33.97;44820.56;4916555;29;20444;-53
2023/06/30 09:54:25;;;;;;;2.93;2.17;;;;;;;-143.84;33.43;44818.66;4916663;29;20448;-53
2023/06/30 09:56:59;;;;;;;4.27;2.20;;;;;;;-143.84;33.06;44822.47;4916261;29;20848;-53
2023/06/30 09:59:26;;;;;;;6.00;2.10;;;;;;;-143.84;32.75;44877.69;4916455;29;20453;-52
2023/06/30 10:01:53;;;;;;;2.23;2.10;;;;;;;-143.84;33.14;44892.94;4916202;29;20504;-52
2023/06/30 10:04:21;;;;;;;7.23;2.30;;;;;;;-143.84;35.83;44875.78;4916239;29;20449;-52
2023/06/30 10:06:49;;;;;;;6.27;2.00;;;;;;;-143.84;35.55;44875.78;4916329;29;20484;-52
2023/06/30 10:09:20;;;;;;;4.30;2.57;;;;;;;-143.84;37.39;44902.44;4916466;29;21018;-52
2023/06/30 10:11:51;;;;;;;2.20;2.00;;;;;;;-143.84;36.81;44911.97;4915871;29;20460;-52
2023/06/30 10:14:21;;;;;;;5.00;2.43;;;;;;;-143.84;37.83;44885.31;4915906;29;20955;-52
2023/06/30 10:16:48;;;;;;;5.80;2.47;;;;;;;-143.84;39.12;44911.97;4915789;29;20504;-52
2023/06/30 10:19:16;;;;;;;2.93;2.47;;;;;;;-143.84;37.72;44906.25;4915889;29;20873;-54
2023/06/30 10:21:43;;;;;;;2.47;2.27;;;;;;;-143.84;37.73;44934.81;4915514;29;20455;-54
2023/06/30 10:24:11;;;;;;;3.83;2.47;;;;;;;-143.84;37.04;44923.41;4915359;29;20461;-54
2023/06/30 10:26:41;;;;;;;2.83;2.17;;;;;;;-143.84;36.33;44885.31;4915420;29;20500;-55
2023/06/30 10:29:08;;;;;;;6.90;2.50;;;;;;;-143.84;35.97;44911.97;4915668;29;20468;-54
2023/06/30 10:31:36;;;;;;;2.60;2.40;;;;;;;-143.84;36.09;44900.53;4915125;29;20459;-54
2023/06/30 10:34:05;;;;;;;2.23;2.00;;;;;;;-143.84;36.16;44925.31;4915505;29;21133;-54
2023/06/30 10:36:33;;;;;;;4.53;2.77;;;;;;;-143.84;36.79;44944.34;4915125;29;20458;-54
2023/06/30 10:39:00;;;;;;;5.03;2.70;;;;;;;-143.84;37.44;44906.25;4915323;29;20458;-54
2023/06/30 10:41:28;;;;;;;11.43;2.77;;;;;;;-143.84;37.50;44896.75;4915288;29;20451;-54
2023/06/30 10:44:15;;;;;;;4.53;2.43;;;;;;;-143.84;37.63;44885.31;4914783;29;20520;-54
2023/06/30 10:46:57;;;;;;;2.20;2.00;;;;;;;-143.84;37.61;44919.59;4915054;29;20865;-55
2023/06/30 10:49:30;;;;;;;2.20;2.10;;;;;;;-143.84;37.15;44929.09;4914964;29;21438;-54
2023/06/30 10:51:58;;;;;;;2.83;2.47;;;;;;;-143.84;37.27;44896.75;4914979;29;20439;-54
2023/06/30 10:54:26;;;;;;;6.73;2.27;;;;;;;-143.84;37.24;44921.50;4914092;29;20448;-54
2023/06/30 10:57:05;;;;;;;2.20;2.00;;;;;;;-143.84;37.55;44923.41;4914710;29;20491;-54
2023/06/30 10:59:39;;;;;;;6.20;2.50;;;;;;;-143.84;39.10;44919.59;4914838;29;20512;-54
2023/06/30 11:02:26;;;;;;;3.00;2.00;;;;;;;-143.84;39.23;44921.50;4914889;29;20804;-54
2023/06/30 11:04:53;;;;;;;2.43;2.23;;;;;;;-143.84;39.17;44925.31;4914601;29;21001;-54
2023/06/30 11:07:25;;;;;;;4.97;3.03;;;;;;;-143.84;40.45;44946.25;4914732;29;20855;-54
2023/06/30 11:10:02;;;;;;;8.90;2.47;;;;;;;-143.84;38.75;44953.88;4914585;29;20860;-54
2023/06/30 11:12:50;;;;;;;2.67;2.47;;;;;;;-143.84;40.40;44963.38;4914722;29;20951;-54
2023/06/30 11:15:37;;;;;;;3.17;2.33;;;;;;;-143.84;39.91;44927.19;4914663;29;20512;-54
2023/06/30 11:18:05;;;;;;;2.20;2.00;;;;;;;-143.84;38.06;44948.16;4914080;29;20441;-54
2023/06/30 11:20:33;;;;;;;3.90;2.37;;;;;;;-143.84;39.63;44938.63;4914273;29;21009;-54